Time;durP1;ratioP1;P1;durP2;ratioP2;P2;SDS_P1;SDS_P2;PMS_P1;PMS_P2;Temp;Humidity;BMP_temperature;BMP_pressure;BME280_temperature;BME280_humidity;BME280_pressure;Samples;Min_cycle;Max_cycle;Signal;HPM_P1;HPM_P2
2021/07/07 00:02:23;;;;;;;6.32;1.65;;;18.50;99.90;;;;;;5067410;28;20028;-49
2021/07/07 00:04:50;;;;;;;6.15;1.70;;;18.40;99.90;;;;;;5060769;28;20619;-45
2021/07/07 00:07:16;;;;;;;6.78;1.60;;;18.50;99.90;;;;;;5057556;28;20033;-44
2021/07/07 00:09:42;;;;;;;4.97;1.83;;;18.50;99.90;;;;;;5063728;28;20497;-44
2021/07/07 00:12:08;;;;;;;4.65;1.80;;;18.40;99.90;;;;;;5062393;28;20036;-44
2021/07/07 00:14:34;;;;;;;5.35;1.83;;;18.40;99.90;;;;;;5059984;28;20047;-48
2021/07/07 00:16:59;;;;;;;2.65;1.55;;;18.30;99.90;;;;;;5060387;28;20021;-45
2021/07/07 00:19:25;;;;;;;3.47;1.45;;;18.30;99.90;;;;;;5063480;28;20036;-44
2021/07/07 00:21:57;;;;;;;9.27;1.67;;;18.30;99.90;;;;;;5061898;28;20078;-44
2021/07/07 00:24:23;;;;;;;5.38;1.40;;;18.30;99.90;;;;;;5051531;28;20509;-44
2021/07/07 00:26:48;;;;;;;3.70;1.50;;;18.30;99.90;;;;;;5063426;28;20028;-45
2021/07/07 00:29:14;;;;;;;6.63;1.80;;;18.30;99.90;;;;;;5062288;28;20025;-44
2021/07/07 00:31:39;;;;;;;6.45;1.85;;;18.20;99.90;;;;;;5062853;28;20033;-46
2021/07/07 00:34:05;;;;;;;2.50;1.67;;;18.20;99.90;;;;;;5062998;28;20124;-47
2021/07/07 00:36:30;;;;;;;1.52;1.27;;;18.20;99.90;;;;;;5061556;28;20017;-47
2021/07/07 00:38:56;;;;;;;5.18;1.45;;;18.20;99.90;;;;;;5061357;28;20635;-47
2021/07/07 00:41:21;;;;;;;2.85;1.60;;;18.20;99.90;;;;;;5050215;28;20077;-46
2021/07/07 00:43:47;;;;;;;10.55;1.63;;;18.10;99.90;;;;;;5063194;28;20032;-47
2021/07/07 00:46:12;;;;;;;4.78;1.90;;;18.10;99.90;;;;;;5062286;28;20037;-46
2021/07/07 00:48:38;;;;;;;3.50;1.75;;;18.10;99.90;;;;;;5063618;28;20040;-46
2021/07/07 00:51:03;;;;;;;6.65;2.25;;;18.00;99.90;;;;;;5061844;28;20387;-47
2021/07/07 00:53:31;;;;;;;5.97;1.83;;;18.10;99.90;;;;;;5063529;28;20021;-47
2021/07/07 00:55:57;;;;;;;6.20;2.20;;;18.00;99.90;;;;;;5061124;28;20698;-48
2021/07/07 00:58:26;;;;;;;3.50;2.03;;;17.90;99.90;;;;;;5063511;28;20025;-47
2021/07/07 01:00:52;;;;;;;14.00;2.42;;;17.90;99.90;;;;;;5061974;28;20070;-45
2021/07/07 01:03:18;;;;;;;4.30;1.88;;;17.90;99.90;;;;;;5062745;28;20028;-46
2021/07/07 01:05:43;;;;;;;7.45;2.22;;;17.80;99.90;;;;;;5052859;28;20029;-46
2021/07/07 01:08:10;;;;;;;2.33;1.65;;;17.80;99.90;;;;;;5065438;28;20370;-46
2021/07/07 01:10:36;;;;;;;3.97;1.70;;;17.80;99.90;;;;;;5065113;28;20563;-45
2021/07/07 01:13:02;;;;;;;4.72;1.70;;;17.80;99.90;;;;;;5059563;28;20103;-49
2021/07/07 01:15:27;;;;;;;3.50;1.98;;;17.80;99.90;;;;;;5062969;28;20100;-46
2021/07/07 01:17:53;;;;;;;2.30;1.73;;;17.80;99.90;;;;;;5063125;28;20090;-45
2021/07/07 01:20:21;;;;;;;4.05;2.10;;;17.70;99.90;;;;;;5059070;28;20047;-44
2021/07/07 01:22:48;;;;;;;3.25;1.90;;;17.70;99.90;;;;;;5062666;28;20054;-45
2021/07/07 01:25:16;;;;;;;12.82;2.33;;;17.70;99.90;;;;;;5060112;28;20032;-45
2021/07/07 01:27:43;;;;;;;12.38;2.50;;;17.70;99.90;;;;;;5064216;28;20033;-45
2021/07/07 01:30:11;;;;;;;5.28;2.10;;;17.60;99.90;;;;;;5060295;28;20016;-46
2021/07/07 01:32:37;;;;;;;5.03;1.83;;;17.60;99.90;;;;;;5057404;28;20050;-46
2021/07/07 01:35:04;;;;;;;6.68;2.58;;;17.60;99.90;;;;;;5061693;28;20024;-45
2021/07/07 01:37:29;;;;;;;6.85;2.20;;;17.60;99.90;;;;;;5056434;28;20021;-48
2021/07/07 01:39:55;;;;;;;3.53;1.98;;;17.60;99.90;;;;;;5062817;28;20481;-46
2021/07/07 01:42:21;;;;;;;3.15;1.98;;;17.60;99.90;;;;;;5058887;28;20025;-46
2021/07/07 01:44:46;;;;;;;5.68;1.90;;;17.60;99.90;;;;;;5064280;28;20099;-47
2021/07/07 01:47:12;;;;;;;2.50;1.88;;;17.60;99.90;;;;;;5060210;28;20029;-47
2021/07/07 01:49:38;;;;;;;2.85;1.70;;;17.60;99.90;;;;;;5063464;28;20103;-46
2021/07/07 01:52:03;;;;;;;5.90;2.13;;;17.50;99.90;;;;;;5061124;28;20087;-46
2021/07/07 01:54:29;;;;;;;2.15;1.70;;;17.50;99.90;;;;;;5058769;28;20032;-47
2021/07/07 01:56:55;;;;;;;3.72;2.13;;;17.40;99.90;;;;;;5064689;28;20028;-47
2021/07/07 01:59:20;;;;;;;3.80;1.98;;;17.40;99.90;;;;;;5058251;28;20017;-46
2021/07/07 02:01:45;;;;;;;2.85;2.10;;;17.40;99.90;;;;;;5064154;28;20104;-45
2021/07/07 02:04:11;;;;;;;5.57;2.28;;;17.40;99.90;;;;;;5059916;28;20525;-45
2021/07/07 02:06:37;;;;;;;5.45;2.10;;;17.30;99.90;;;;;;5052301;28;20028;-47
2021/07/07 02:09:06;;;;;;;5.82;2.20;;;17.30;99.90;;;;;;5066790;28;20020;-46
2021/07/07 02:11:34;;;;;;;2.63;1.83;;;17.30;99.90;;;;;;5059231;28;20667;-46
2021/07/07 02:13:59;;;;;;;4.63;1.85;;;17.30;99.90;;;;;;5064374;28;20414;-47
2021/07/07 02:16:25;;;;;;;2.78;1.80;;;17.40;99.90;;;;;;5057633;28;20112;-47
2021/07/07 02:18:50;;;;;;;5.07;1.80;;;17.40;99.90;;;;;;5058207;28;20013;-45
2021/07/07 02:21:15;;;;;;;4.95;2.20;;;17.40;99.90;;;;;;5060036;28;20115;-46
2021/07/07 02:23:41;;;;;;;5.38;2.20;;;17.40;99.90;;;;;;5061460;28;20051;-46
2021/07/07 02:26:07;;;;;;;4.75;1.98;;;17.30;99.90;;;;;;5059684;28;20055;-46
2021/07/07 02:28:32;;;;;;;2.03;1.55;;;17.30;99.90;;;;;;5063543;28;20021;-46
2021/07/07 02:30:58;;;;;;;3.05;1.73;;;17.30;99.90;;;;;;5057848;28;20028;-46
2021/07/07 02:33:26;;;;;;;3.33;1.83;;;17.30;99.90;;;;;;5065508;28;20211;-47
2021/07/07 02:35:52;;;;;;;4.50;2.05;;;17.30;99.90;;;;;;5057035;28;20378;-45
2021/07/07 02:38:20;;;;;;;3.38;1.83;;;17.20;99.90;;;;;;5061214;28;20493;-45
2021/07/07 02:40:47;;;;;;;1.83;1.73;;;17.20;99.90;;;;;;5059752;28;20025;-49
2021/07/07 02:43:13;;;;;;;2.10;1.77;;;17.10;99.90;;;;;;5059876;28;20108;-47
2021/07/07 02:45:40;;;;;;;2.60;2.10;;;17.10;99.90;;;;;;5061066;28;20107;-46
2021/07/07 02:48:06;;;;;;;2.20;1.80;;;17.10;99.90;;;;;;5058682;28;20021;-46
2021/07/07 02:50:33;;;;;;;3.10;2.03;;;17.10;99.90;;;;;;5063334;28;20021;-46
2021/07/07 02:52:58;;;;;;;3.78;1.98;;;17.10;99.90;;;;;;5054756;28;20032;-46
2021/07/07 02:55:24;;;;;;;1.73;1.60;;;17.10;99.90;;;;;;5061235;28;20413;-46
2021/07/07 02:58:01;;;;;;;2.53;1.63;;;17.10;99.90;;;;;;5060075;28;20009;-45
2021/07/07 03:00:34;;;;;;;2.47;1.90;;;17.10;99.90;;;;;;5046641;28;20115;-46
2021/07/07 03:03:08;;;;;;;3.22;2.03;;;17.10;99.90;;;;;;5059722;28;20447;-46
2021/07/07 03:05:45;;;;;;;4.03;1.63;;;17.10;99.90;;;;;;5054920;28;20564;-46
2021/07/07 03:08:13;;;;;;;1.90;1.70;;;17.10;99.90;;;;;;5064173;28;20032;-46
2021/07/07 03:10:39;;;;;;;3.05;1.70;;;17.00;99.90;;;;;;5063453;28;20059;-45
2021/07/07 03:13:05;;;;;;;3.45;1.80;;;17.00;99.90;;;;;;5058722;28;20638;-46
2021/07/07 03:15:32;;;;;;;4.88;1.63;;;17.00;99.90;;;;;;5060411;28;20111;-46
2021/07/07 03:17:58;;;;;;;3.25;1.92;;;17.00;99.90;;;;;;5060963;28;20037;-46
2021/07/07 03:20:23;;;;;;;2.63;1.55;;;17.00;99.90;;;;;;5055850;28;20017;-47
2021/07/07 03:22:49;;;;;;;2.33;1.60;;;17.10;99.90;;;;;;5047765;28;20026;-48
2021/07/07 03:25:16;;;;;;;4.30;1.80;;;17.00;99.90;;;;;;5059772;28;20024;-46
2021/07/07 03:27:41;;;;;;;1.77;1.52;;;17.00;99.90;;;;;;5036191;28;20037;-49
2021/07/07 03:30:07;;;;;;;2.78;1.70;;;17.00;99.90;;;;;;5035084;28;20033;-45
2021/07/07 03:32:33;;;;;;;3.13;2.20;;;17.00;99.90;;;;;;5030101;28;20497;-49
2021/07/07 03:35:00;;;;;;;7.72;1.63;;;17.00;99.90;;;;;;5055009;28;20033;-45
2021/07/07 03:37:25;;;;;;;4.03;1.52;;;17.00;99.90;;;;;;5048027;28;20017;-45
2021/07/07 03:39:51;;;;;;;5.03;1.67;;;17.10;99.90;;;;;;5054274;28;20527;-47
2021/07/07 03:42:16;;;;;;;3.28;1.80;;;17.00;99.90;;;;;;5049674;28;20262;-46
2021/07/07 03:44:42;;;;;;;5.07;1.52;;;17.00;99.90;;;;;;5041472;28;20040;-45
2021/07/07 03:47:07;;;;;;;3.45;1.70;;;17.00;99.90;;;;;;5052859;28;20044;-46
2021/07/07 03:49:33;;;;;;;5.88;2.20;;;17.10;99.90;;;;;;5044286;28;20116;-46
2021/07/07 03:51:59;;;;;;;1.40;1.30;;;17.00;99.90;;;;;;5054222;28;20025;-46
2021/07/07 03:54:24;;;;;;;4.38;1.73;;;17.10;99.90;;;;;;5046146;28;20744;-46
2021/07/07 03:56:55;;;;;;;1.50;1.40;;;17.10;99.90;;;;;;5037394;28;20033;-45
2021/07/07 03:59:21;;;;;;;4.45;2.35;;;17.10;99.90;;;;;;5040862;28;20050;-45
2021/07/07 04:01:47;;;;;;;3.00;1.70;;;17.20;99.90;;;;;;5037351;28;20080;-45
2021/07/07 04:04:13;;;;;;;2.75;1.85;;;17.20;99.90;;;;;;5054633;28;20028;-45
2021/07/07 04:06:39;;;;;;;3.95;1.70;;;17.20;99.90;;;;;;5053657;28;20059;-49
2021/07/07 04:09:05;;;;;;;3.58;1.63;;;17.20;99.90;;;;;;5055196;28;20048;-46
2021/07/07 04:11:30;;;;;;;2.17;1.52;;;17.20;99.90;;;;;;5043473;28;20045;-46
2021/07/07 04:13:55;;;;;;;3.65;2.30;;;17.20;99.90;;;;;;5054800;28;20546;-47
2021/07/07 04:16:21;;;;;;;2.63;1.80;;;17.20;99.90;;;;;;5053529;28;20025;-46
2021/07/07 04:18:46;;;;;;;3.60;1.85;;;17.20;99.90;;;;;;5058967;28;20032;-45
2021/07/07 04:21:12;;;;;;;1.95;1.75;;;17.20;99.90;;;;;;5060370;28;20021;-47
2021/07/07 04:23:37;;;;;;;4.22;1.98;;;17.20;99.90;;;;;;5061262;28;20568;-45
2021/07/07 04:26:03;;;;;;;2.67;1.80;;;17.20;99.90;;;;;;5058531;28;20064;-46
2021/07/07 04:28:29;;;;;;;5.72;2.20;;;17.20;99.90;;;;;;5064479;28;20052;-47
2021/07/07 04:30:54;;;;;;;4.80;1.92;;;17.10;99.90;;;;;;5058244;28;20025;-49
2021/07/07 04:33:20;;;;;;;2.70;1.80;;;17.10;99.90;;;;;;5049887;28;20521;-45
2021/07/07 04:35:45;;;;;;;3.85;1.70;;;17.10;99.90;;;;;;5061416;28;20108;-47
2021/07/07 04:38:11;;;;;;;6.03;2.15;;;17.20;99.90;;;;;;5058294;28;20029;-45
2021/07/07 04:40:36;;;;;;;3.75;1.83;;;17.10;99.90;;;;;;5038984;28;20052;-46
2021/07/07 04:43:03;;;;;;;4.50;2.20;;;17.10;99.90;;;;;;5034644;28;20471;-48
2021/07/07 04:45:29;;;;;;;4.90;2.95;;;17.10;99.90;;;;;;5034013;28;20035;-48
2021/07/07 04:47:55;;;;;;;3.55;2.30;;;17.10;99.90;;;;;;5048297;28;20422;-46
2021/07/07 04:50:21;;;;;;;3.03;2.10;;;17.10;99.90;;;;;;5055015;28;20020;-47
2021/07/07 04:52:46;;;;;;;4.32;2.10;;;17.10;99.90;;;;;;5052077;28;20026;-48
2021/07/07 04:55:13;;;;;;;7.43;2.60;;;17.10;99.90;;;;;;5051143;28;20349;-46
2021/07/07 04:57:41;;;;;;;5.00;2.22;;;17.10;99.90;;;;;;5044269;28;20474;-49
2021/07/07 05:00:08;;;;;;;4.75;2.15;;;17.10;99.90;;;;;;5050254;28;20083;-47
2021/07/07 05:02:34;;;;;;;2.40;1.92;;;17.10;99.90;;;;;;5050013;28;20031;-47
2021/07/07 05:04:59;;;;;;;4.82;2.00;;;17.20;99.90;;;;;;5051242;28;20021;-46
2021/07/07 05:07:25;;;;;;;4.05;2.30;;;17.20;99.90;;;;;;5056586;28;20044;-46
2021/07/07 05:09:50;;;;;;;4.15;2.10;;;17.20;99.90;;;;;;5039649;28;20044;-47
2021/07/07 05:12:16;;;;;;;4.82;2.88;;;17.30;99.90;;;;;;5043073;28;20040;-47
2021/07/07 05:14:41;;;;;;;6.22;2.78;;;17.30;99.90;;;;;;5045282;28;20104;-47
2021/07/07 05:17:07;;;;;;;6.78;2.40;;;17.30;99.90;;;;;;5052737;28;20037;-46
2021/07/07 05:19:32;;;;;;;5.60;2.25;;;17.40;99.90;;;;;;5050378;28;20040;-47
2021/07/07 05:21:58;;;;;;;4.50;2.28;;;17.30;99.90;;;;;;5055923;28;20056;-46
2021/07/07 05:24:23;;;;;;;2.95;1.70;;;17.40;99.90;;;;;;5057756;28;20272;-47
2021/07/07 05:26:49;;;;;;;3.97;1.58;;;17.40;99.90;;;;;;5055288;28;20390;-45
2021/07/07 05:29:16;;;;;;;3.70;2.10;;;17.40;99.90;;;;;;5060623;28;20116;-45
2021/07/07 05:31:42;;;;;;;2.15;1.65;;;17.40;99.90;;;;;;5061413;28;20035;-45
2021/07/07 05:34:09;;;;;;;2.97;1.98;;;17.50;99.90;;;;;;5057146;28;20434;-46
2021/07/07 05:36:34;;;;;;;2.58;1.90;;;17.50;99.90;;;;;;5055973;28;20025;-46
2021/07/07 05:39:00;;;;;;;5.18;1.70;;;17.50;99.90;;;;;;5050290;28;20080;-46
2021/07/07 05:41:25;;;;;;;2.50;1.83;;;17.50;99.90;;;;;;5049957;28;20036;-44
2021/07/07 05:43:54;;;;;;;6.32;1.90;;;17.60;99.90;;;;;;5058300;28;20028;-44
2021/07/07 05:46:19;;;;;;;3.85;1.95;;;17.60;99.90;;;;;;5062187;28;20098;-46
2021/07/07 05:48:45;;;;;;;3.00;2.10;;;17.60;99.90;;;;;;5060436;28;20467;-47
2021/07/07 05:51:10;;;;;;;3.28;1.95;;;17.60;99.90;;;;;;5047721;28;20128;-45
2021/07/07 05:53:36;;;;;;;5.47;1.80;;;17.60;99.90;;;;;;5060763;28;20390;-45
2021/07/07 05:56:01;;;;;;;8.52;1.90;;;17.60;99.90;;;;;;5054631;28;20237;-44
2021/07/07 05:58:27;;;;;;;8.68;2.28;;;17.60;99.90;;;;;;5056790;28;20505;-44
2021/07/07 06:00:53;;;;;;;3.13;1.98;;;17.60;99.90;;;;;;5050855;28;20040;-45
2021/07/07 06:03:18;;;;;;;4.68;2.05;;;17.60;99.90;;;;;;5048136;28;20023;-44
2021/07/07 06:05:43;;;;;;;4.57;2.03;;;17.60;99.90;;;;;;5054208;28;20478;-45
2021/07/07 06:08:09;;;;;;;3.95;1.85;;;17.50;99.90;;;;;;5047748;28;20030;-44
2021/07/07 06:10:34;;;;;;;5.68;1.80;;;17.50;99.90;;;;;;5033117;28;20490;-44
2021/07/07 06:13:00;;;;;;;4.10;1.95;;;17.50;99.90;;;;;;5034348;28;20378;-44
2021/07/07 06:15:26;;;;;;;4.50;1.80;;;17.50;99.90;;;;;;5038715;28;20115;-45
2021/07/07 06:17:52;;;;;;;4.75;1.90;;;17.50;99.90;;;;;;5031957;28;20111;-45
2021/07/07 06:20:18;;;;;;;5.20;2.58;;;17.50;99.90;;;;;;5035561;28;20080;-45
2021/07/07 06:22:44;;;;;;;3.67;1.80;;;17.50;99.90;;;;;;5035237;28;20475;-45
2021/07/07 06:25:12;;;;;;;8.63;2.28;;;17.50;99.90;;;;;;5039862;28;20259;-43
2021/07/07 06:27:40;;;;;;;12.35;2.08;;;17.50;99.90;;;;;;5037098;28;20020;-44
2021/07/07 06:30:08;;;;;;;5.45;2.22;;;17.50;99.90;;;;;;5036403;28;20031;-44
2021/07/07 06:32:33;;;;;;;4.80;1.92;;;17.60;99.90;;;;;;5037296;28;20532;-44
2021/07/07 06:35:02;;;;;;;5.70;1.60;;;17.70;99.90;;;;;;5039931;28;20029;-43
2021/07/07 06:37:29;;;;;;;3.28;1.77;;;17.80;99.90;;;;;;5037960;28;20026;-45
2021/07/07 06:39:54;;;;;;;6.82;2.10;;;17.90;99.90;;;;;;5045757;28;20021;-44
2021/07/07 06:42:20;;;;;;;3.63;1.90;;;17.90;99.90;;;;;;5037291;28;20546;-54
2021/07/07 06:44:46;;;;;;;5.05;2.10;;;18.00;99.90;;;;;;5048721;28;20071;-54
2021/07/07 06:47:11;;;;;;;6.65;1.92;;;18.10;99.90;;;;;;5038231;28;20033;-54
2021/07/07 06:49:37;;;;;;;2.85;2.05;;;18.10;99.90;;;;;;5038078;28;20545;-54
2021/07/07 06:52:04;;;;;;;4.28;2.20;;;18.10;99.90;;;;;;5038962;28;20371;-54
2021/07/07 06:54:29;;;;;;;9.02;2.72;;;18.10;99.90;;;;;;5033140;28;20141;-54
2021/07/07 06:56:55;;;;;;;6.32;2.28;;;18.00;99.90;;;;;;5037230;28;20526;-54
2021/07/07 06:59:21;;;;;;;2.95;2.00;;;18.00;99.90;;;;;;5038411;28;20020;-54
2021/07/07 07:01:46;;;;;;;4.53;2.20;;;18.10;99.90;;;;;;5038131;28;20026;-53
2021/07/07 07:04:11;;;;;;;5.00;2.72;;;18.20;99.90;;;;;;5040538;28;20057;-53
2021/07/07 07:06:37;;;;;;;7.13;2.42;;;18.10;99.90;;;;;;5036614;28;20423;-53
2021/07/07 07:09:04;;;;;;;3.10;2.13;;;18.20;99.90;;;;;;5041645;28;20037;-53
2021/07/07 07:11:29;;;;;;;7.78;2.00;;;18.30;99.90;;;;;;5034479;28;20456;-53
2021/07/07 07:13:55;;;;;;;4.05;1.70;;;18.30;99.90;;;;;;5034524;28;20056;-54
2021/07/07 07:16:21;;;;;;;7.03;1.80;;;18.30;99.90;;;;;;5038085;28;20035;-54
2021/07/07 07:18:47;;;;;;;3.95;1.83;;;18.30;99.90;;;;;;5036817;28;20423;-54
2021/07/07 07:21:12;;;;;;;5.20;2.03;;;18.30;99.90;;;;;;5039343;28;20026;-54
2021/07/07 07:23:38;;;;;;;4.47;1.83;;;18.40;99.90;;;;;;5034382;28;20017;-53
2021/07/07 07:26:04;;;;;;;5.80;1.83;;;18.50;99.90;;;;;;5036648;28;20071;-54
2021/07/07 07:28:29;;;;;;;3.42;1.80;;;18.60;99.90;;;;;;5035718;28;20409;-55
2021/07/07 07:30:57;;;;;;;4.47;2.15;;;18.70;99.90;;;;;;5035197;28;20026;-55
2021/07/07 07:33:22;;;;;;;4.28;1.67;;;18.80;99.90;;;;;;5034266;28;20086;-54
2021/07/07 07:35:48;;;;;;;4.90;1.90;;;18.90;99.90;;;;;;5034588;28;20064;-54
2021/07/07 07:38:15;;;;;;;5.13;2.10;;;19.00;99.90;;;;;;5034291;28;20435;-54
2021/07/07 07:40:44;;;;;;;3.35;2.10;;;19.10;99.90;;;;;;5035633;28;20017;-53
2021/07/07 07:43:10;;;;;;;6.85;2.55;;;19.20;99.90;;;;;;5038718;28;20014;-53
2021/07/07 07:45:58;;;;;;;4.43;1.77;;;19.30;99.90;;;;;;5043901;28;20243;-54
2021/07/07 07:48:42;;;;;;;4.50;1.85;;;19.50;99.90;;;;;;5006905;28;20327;-54
2021/07/07 07:51:07;;;;;;;5.55;1.70;;;19.50;99.90;;;;;;5007441;28;20038;-53
2021/07/07 07:53:33;;;;;;;2.35;1.65;;;19.70;99.90;;;;;;5026727;28;20042;-53
2021/07/07 07:55:58;;;;;;;6.90;2.20;;;20.00;99.90;;;;;;5033328;28;20035;-54
2021/07/07 07:58:24;;;;;;;3.40;2.05;;;20.30;99.90;;;;;;5033977;28;20029;-55
2021/07/07 08:00:50;;;;;;;7.82;2.13;;;20.50;99.90;;;;;;5034882;28;20475;-54
2021/07/07 08:03:16;;;;;;;10.48;6.53;;;20.80;99.90;;;;;;5053909;28;20024;-54
2021/07/07 08:05:43;;;;;;;14.10;10.73;;;20.90;99.90;;;;;;5051927;28;20575;-54
2021/07/07 08:08:10;;;;;;;10.38;5.25;;;21.10;99.90;;;;;;5035559;28;20463;-54
2021/07/07 08:10:37;;;;;;;8.40;2.13;;;21.10;99.90;;;;;;5035574;28;20042;-54
2021/07/07 08:13:03;;;;;;;3.33;1.80;;;20.70;99.90;;;;;;5031867;28;20050;-53
2021/07/07 08:15:29;;;;;;;4.80;2.40;;;20.50;99.90;;;;;;5030210;28;20030;-54
2021/07/07 08:17:56;;;;;;;7.03;2.20;;;20.60;99.90;;;;;;5033077;28;20025;-54
2021/07/07 08:20:23;;;;;;;3.17;1.77;;;20.60;99.90;;;;;;5031451;28;20307;-54
2021/07/07 08:22:49;;;;;;;5.40;1.85;;;20.50;99.90;;;;;;5031320;28;20013;-54
2021/07/07 08:25:15;;;;;;;5.78;2.40;;;20.50;99.90;;;;;;5032656;28;20079;-54
2021/07/07 08:27:41;;;;;;;8.20;2.03;;;20.50;99.90;;;;;;5031366;28;20109;-55
2021/07/07 08:34:25;;;;;;;5.57;2.20;;;22.50;99.90;;;;;;5031015;28;20052;-54
2021/07/07 08:36:50;;;;;;;5.43;1.80;;;23.40;99.90;;;;;;5033051;28;20029;-54
2021/07/07 08:39:16;;;;;;;8.25;2.50;;;25.00;99.90;;;;;;5030269;28;20115;-55
2021/07/07 08:41:41;;;;;;;9.05;1.92;;;25.60;98.30;;;;;;5031664;28;20034;-54
2021/07/07 08:44:07;;;;;;;4.75;2.00;;;26.40;96.10;;;;;;5031398;28;20558;-55
2021/07/07 08:46:36;;;;;;;4.22;1.65;;;26.70;93.10;;;;;;5038996;28;20030;-55
2021/07/07 08:49:03;;;;;;;3.78;1.48;;;27.40;87.60;;;;;;5037651;28;20422;-54
2021/07/07 08:51:28;;;;;;;2.60;1.50;;;27.20;84.90;;;;;;5034950;28;20071;-54
2021/07/07 08:53:54;;;;;;;3.45;1.80;;;27.80;81.20;;;;;;5038374;28;20026;-55
2021/07/07 08:56:19;;;;;;;4.38;1.50;;;26.70;78.90;;;;;;5040366;28;20139;-54
2021/07/07 08:58:45;;;;;;;4.00;1.40;;;27.10;81.00;;;;;;5052617;28;20058;-54
2021/07/07 09:01:11;;;;;;;5.65;1.70;;;26.50;77.50;;;;;;5044186;28;20068;-54
2021/07/07 09:03:43;;;;;;;9.18;2.17;;;26.80;77.80;;;;;;5060994;28;20029;-54
2021/07/07 09:06:08;;;;;;;3.85;1.45;;;26.10;79.80;;;;;;5056280;28;20029;-54
2021/07/07 09:08:37;;;;;;;5.88;2.10;;;26.40;81.00;;;;;;5054424;28;20032;-55
2021/07/07 09:11:23;;;;;;;7.13;2.30;;;26.70;80.40;;;;;;5049345;28;20375;-53
2021/07/07 09:14:12;;;;;;;6.15;2.08;;;26.70;79.70;;;;;;5033110;28;20018;-54
2021/07/07 09:17:09;;;;;;;9.00;2.80;;;27.20;79.80;;;;;;5040141;28;20588;-54
2021/07/07 09:19:37;;;;;;;4.03;1.60;;;28.20;78.90;;;;;;5033357;28;20033;-54
2021/07/07 09:22:06;;;;;;;5.03;1.95;;;28.80;73.10;;;;;;5031901;28;20049;-54
2021/07/07 09:24:33;;;;;;;3.63;2.03;;;29.20;69.50;;;;;;5035187;28;20033;-54
2021/07/07 09:27:08;;;;;;;4.70;2.10;;;28.60;72.50;;;;;;5029952;28;20502;-54
2021/07/07 09:29:37;;;;;;;9.55;2.08;;;29.30;71.40;;;;;;5031684;28;20041;-55
2021/07/07 09:32:21;;;;;;;3.92;1.80;;;30.80;67.90;;;;;;5031839;28;20105;-54
2021/07/07 09:34:50;;;;;;;5.82;1.50;;;30.60;69.20;;;;;;5032593;28;20038;-55
2021/07/07 09:37:38;;;;;;;3.95;2.05;;;30.50;68.40;;;;;;5033690;28;20029;-55
2021/07/07 09:40:09;;;;;;;4.47;1.98;;;30.50;66.00;;;;;;5037298;28;20046;-55
2021/07/07 09:42:37;;;;;;;4.35;1.58;;;30.60;70.10;;;;;;5032806;28;20055;-55
2021/07/07 09:45:07;;;;;;;4.70;1.55;;;31.70;65.60;;;;;;5037123;28;20598;-55
2021/07/07 09:47:32;;;;;;;5.57;1.60;;;31.90;59.50;;;;;;5037662;28;20029;-55
2021/07/07 09:49:59;;;;;;;4.20;2.00;;;31.40;59.90;;;;;;5039576;28;20267;-56
2021/07/07 09:52:28;;;;;;;4.05;1.50;;;29.50;62.40;;;;;;5036154;28;20056;-55
2021/07/07 09:54:55;;;;;;;7.50;1.85;;;29.90;60.80;;;;;;5030700;28;20031;-54
2021/07/07 09:57:22;;;;;;;6.88;1.88;;;29.80;62.80;;;;;;5038728;28;20025;-54
2021/07/07 09:59:48;;;;;;;4.43;1.80;;;29.90;62.10;;;;;;5033153;28;20490;-54
2021/07/07 10:02:14;;;;;;;4.93;1.90;;;30.90;59.40;;;;;;5036043;28;20108;-54
2021/07/07 10:04:42;;;;;;;6.50;1.60;;;30.80;61.70;;;;;;5034310;28;20079;-54
2021/07/07 10:07:10;;;;;;;8.13;2.08;;;31.10;59.20;;;;;;5035202;28;20056;-55
2021/07/07 10:09:37;;;;;;;2.95;1.50;;;31.30;57.40;;;;;;5048910;28;20074;-54
2021/07/07 10:12:03;;;;;;;4.57;1.60;;;31.10;57.90;;;;;;5039911;28;20087;-56
2021/07/07 10:14:29;;;;;;;4.53;1.45;;;31.70;57.80;;;;;;5050223;28;20033;-54
2021/07/07 10:16:55;;;;;;;3.45;1.42;;;32.00;57.10;;;;;;5046277;28;20025;-55
2021/07/07 10:19:21;;;;;;;5.47;1.65;;;30.90;58.40;;;;;;5049994;28;20031;-56
2021/07/07 10:21:47;;;;;;;4.95;1.50;;;31.30;59.10;;;;;;5040615;28;20479;-55
2021/07/07 10:24:15;;;;;;;3.35;1.33;;;32.30;56.60;;;;;;5058154;28;20478;-55
2021/07/07 10:26:42;;;;;;;5.38;1.70;;;32.40;55.70;;;;;;5050096;28;20108;-55
2021/07/07 10:29:08;;;;;;;4.70;1.50;;;31.30;55.60;;;;;;5055893;28;20026;-57
2021/07/07 10:31:53;;;;;;;5.03;1.70;;;31.70;56.30;;;;;;5048181;28;20024;-54
2021/07/07 10:34:22;;;;;;;4.05;1.45;;;30.70;57.40;;;;;;5061061;28;20455;-54
2021/07/07 10:36:48;;;;;;;3.30;1.35;;;31.00;58.40;;;;;;5058003;28;20107;-55
2021/07/07 10:39:15;;;;;;;5.97;1.70;;;32.20;56.40;;;;;;5053319;28;20079;-54
2021/07/07 10:41:41;;;;;;;5.47;1.48;;;32.40;56.00;;;;;;5058740;28;20024;-54
2021/07/07 10:44:07;;;;;;;8.70;1.73;;;32.50;54.30;;;;;;5058581;28;20043;-54
2021/07/07 10:46:50;;;;;;;7.25;1.88;;;30.20;58.70;;;;;;5058024;28;20573;-54
2021/07/07 10:49:20;;;;;;;4.47;1.40;;;31.30;56.20;;;;;;5050315;28;20028;-59
2021/07/07 10:51:46;;;;;;;;;;;32.00;54.70;;;;;;5056532;28;20092;-58
2021/07/07 10:54:23;;;;;;;8.43;1.73;;;31.30;54.70;;;;;;5057333;28;21024;-58
2021/07/07 10:56:49;;;;;;;4.53;1.45;;;31.90;58.60;;;;;;5061448;28;20058;-58
2021/07/07 10:59:34;;;;;;;2.85;1.30;;;32.60;55.80;;;;;;5053626;28;20029;-59
2021/07/07 11:02:18;;;;;;;4.43;1.45;;;33.80;53.80;;;;;;5063140;28;20513;-58
2021/07/07 11:04:44;;;;;;;4.30;1.48;;;33.30;48.80;;;;;;5053142;28;20029;-58
2021/07/07 11:07:34;;;;;;;3.83;1.40;;;32.20;52.80;;;;;;5056053;28;20048;-58
2021/07/07 11:10:04;;;;;;;5.57;1.42;;;32.40;56.10;;;;;;5056704;28;20032;-58
2021/07/07 11:12:42;;;;;;;5.20;1.50;;;33.40;53.20;;;;;;5062682;28;20024;-59
2021/07/07 11:15:10;;;;;;;4.90;1.75;;;33.40;51.20;;;;;;5048402;28;20047;-58
2021/07/07 11:17:48;;;;;;;3.85;1.63;;;32.30;50.50;;;;;;5059877;28;20509;-58
2021/07/07 11:20:30;;;;;;;5.50;1.85;;;32.10;52.80;;;;;;5061337;28;20064;-58
2021/07/07 11:23:00;;;;;;;3.53;1.58;;;30.50;51.70;;;;;;5053954;28;20075;-59
2021/07/07 11:25:27;;;;;;;3.53;1.70;;;31.10;54.30;;;;;;5052343;28;20083;-58
2021/07/07 11:27:53;;;;;;;4.63;1.45;;;30.00;54.70;;;;;;5066426;28;20024;-59
2021/07/07 11:30:20;;;;;;;3.15;1.70;;;29.70;55.00;;;;;;5046345;28;20167;-59
2021/07/07 11:32:48;;;;;;;4.68;1.60;;;31.10;54.60;;;;;;5057827;28;20043;-59
2021/07/07 11:35:24;;;;;;;5.43;1.75;;;31.40;54.10;;;;;;5064882;28;20037;-58
2021/07/07 11:37:55;;;;;;;2.30;1.45;;;32.40;53.70;;;;;;5048357;28;20028;-59
2021/07/07 11:40:22;;;;;;;6.78;1.33;;;31.40;51.10;;;;;;5060026;28;20060;-58
2021/07/07 11:42:59;;;;;;;4.10;1.63;;;29.70;53.00;;;;;;5054975;28;20028;-58
2021/07/07 11:45:35;;;;;;;8.32;1.90;;;28.70;54.40;;;;;;5054791;28;20078;-58
2021/07/07 11:48:13;;;;;;;5.28;1.85;;;28.80;57.30;;;;;;5056117;28;20040;-60
2021/07/07 11:50:44;;;;;;;6.40;1.83;;;29.40;56.70;;;;;;5064085;28;20035;-60
2021/07/07 11:53:10;;;;;;;4.00;1.63;;;28.60;56.70;;;;;;5059789;28;20102;-60
2021/07/07 11:55:49;;;;;;;4.45;1.80;;;28.40;58.40;;;;;;5053327;28;20178;-59
2021/07/07 11:58:26;;;;;;;4.72;1.40;;;29.80;59.20;;;;;;5061220;28;20017;-60
2021/07/07 12:00:54;;;;;;;6.28;1.30;;;30.80;55.00;;;;;;5058494;28;20028;-60
2021/07/07 12:03:22;;;;;;;5.07;1.40;;;31.10;53.60;;;;;;5061870;28;20113;-60
2021/07/07 12:06:03;;;;;;;7.35;1.80;;;31.70;56.10;;;;;;5061901;28;20036;-60
2021/07/07 12:08:31;;;;;;;5.28;1.30;;;31.90;52.70;;;;;;5053443;28;20022;-60
2021/07/07 12:11:08;;;;;;;5.55;1.52;;;31.00;53.00;;;;;;5056555;28;20570;-60
2021/07/07 12:13:36;;;;;;;5.18;1.45;;;30.70;54.70;;;;;;5055694;28;20036;-60
2021/07/07 12:16:13;;;;;;;2.65;1.30;;;30.60;54.40;;;;;;5054141;28;20024;-63
2021/07/07 12:18:40;;;;;;;10.55;1.90;;;30.00;56.90;;;;;;5060660;28;20390;-60
2021/07/07 12:21:05;;;;;;;8.30;2.08;;;29.40;57.50;;;;;;5044505;28;20028;-60
2021/07/07 12:23:42;;;;;;;5.32;1.55;;;29.30;57.50;;;;;;5063291;28;20455;-60
2021/07/07 12:26:09;;;;;;;6.57;1.27;;;29.10;55.80;;;;;;5056695;28;20414;-60
2021/07/07 12:28:35;;;;;;;8.05;2.10;;;28.10;57.20;;;;;;5063911;28;20058;-60
2021/07/07 12:31:01;;;;;;;5.22;1.50;;;27.50;58.90;;;;;;5056360;28;20112;-60
2021/07/07 12:33:31;;;;;;;2.78;1.65;;;27.60;60.20;;;;;;5062657;28;20096;-60
2021/07/07 12:35:57;;;;;;;4.65;1.60;;;28.00;58.60;;;;;;5054294;28;20463;-60
2021/07/07 12:38:23;;;;;;;5.78;1.67;;;27.50;56.70;;;;;;5055670;28;20040;-60
2021/07/07 12:40:55;;;;;;;3.28;1.73;;;27.80;60.80;;;;;;5057797;28;20031;-60
2021/07/07 12:43:41;;;;;;;3.33;1.50;;;28.60;60.90;;;;;;5062286;28;20481;-60
2021/07/07 12:46:08;;;;;;;10.63;1.70;;;29.00;59.60;;;;;;5062203;28;20021;-60
2021/07/07 12:48:54;;;;;;;6.60;1.83;;;28.80;54.70;;;;;;5061697;28;20025;-60
2021/07/07 12:51:21;;;;;;;3.95;1.50;;;28.40;55.90;;;;;;5060587;28;20527;-60
2021/07/07 12:53:46;;;;;;;5.80;1.80;;;28.20;56.60;;;;;;5058332;28;20033;-60